Time;durP1;ratioP1;P1;durP2;ratioP2;P2;SDS_P1;SDS_P2;PMS_P1;PMS_P2;Temp;Humidity;BMP_temperature;BMP_pressure;BME280_temperature;BME280_humidity;BME280_pressure;Samples;Min_cycle;Max_cycle;Signal;HPM_P1;HPM_P2
2023/06/01 00:01:45;;;;;;;;;9.00;6.33;;;;;21.03;44.91;101198.81;6162345;23;45059;-62
2023/06/01 00:04:10;;;;;;;;;8.67;8.33;;;;;21.79;45.49;101340.34;6191610;23;45425;-62
2023/06/01 00:06:35;;;;;;;;;6.67;6.67;;;;;21.75;45.59;101342.19;6190874;22;45158;-64
2023/06/01 00:09:02;;;;;;;;;6.67;6.67;;;;;21.61;45.58;101323.28;6190831;22;45186;-61
2023/06/01 00:11:28;;;;;;;;;7.33;7.00;;;;;21.30;45.82;101273.72;6191695;22;45004;-62
2023/06/01 00:13:53;;;;;;;;;7.67;7.00;;;;;21.63;46.14;101331.44;6190354;23;44973;-62
2023/06/01 00:16:19;;;;;;;;;9.67;8.00;;;;;21.53;46.64;101322.47;6191973;22;45260;-62
2023/06/01 00:18:44;;;;;;;;;9.33;8.00;;;;;21.53;46.70;101336.06;6191187;23;45242;-62
2023/06/01 00:21:10;;;;;;;;;6.33;4.00;;;;;21.49;46.94;101332.47;6191190;22;44958;-61
2023/06/01 00:23:36;;;;;;;;;9.67;7.00;;;;;21.49;46.94;101335.19;6191167;22;45088;-61
2023/06/01 00:26:02;;;;;;;;;12.33;9.33;;;;;21.45;47.27;101325.25;6191674;23;45057;-61
2023/06/01 00:28:27;;;;;;;;;13.67;10.00;;;;;21.46;47.31;101323.41;6191123;23;45669;-61
2023/06/01 00:30:53;;;;;;;;;11.00;8.00;;;;;21.42;47.61;101322.53;6190924;22;45131;-62
2023/06/01 00:33:21;;;;;;;;;8.00;6.00;;;;;21.31;47.66;101309.03;6189498;23;44956;-62
2023/06/01 00:35:47;;;;;;;;;9.67;6.67;;;;;21.38;47.66;101325.31;6191140;23;44882;-62
2023/06/01 00:38:13;;;;;;;;;9.33;7.67;;;;;21.35;48.12;101328.97;6190522;22;45721;-62
2023/06/01 00:40:38;;;;;;;;;8.67;8.67;;;;;21.29;48.29;101324.47;6190794;22;45121;-62
2023/06/01 00:43:04;;;;;;;;;9.33;9.33;;;;;21.28;48.45;101329.91;6190785;22;44968;-64
2023/06/01 00:45:30;;;;;;;;;12.00;7.33;;;;;21.23;48.58;101326.34;6191218;22;45212;-61
2023/06/01 00:47:56;;;;;;;;;8.33;8.00;;;;;21.15;48.95;101319.16;6189497;22;45520;-62
2023/06/01 00:50:22;;;;;;;;;8.33;8.00;;;;;21.13;48.84;101320.06;6190089;22;45221;-61
2023/06/01 00:52:50;;;;;;;;;14.00;11.33;;;;;21.09;49.18;101313.78;6190524;22;45098;-63
2023/06/01 00:55:16;;;;;;;;;13.00;13.00;;;;;21.13;49.26;101320.06;6190002;22;45071;-63
2023/06/01 00:57:43;;;;;;;;;12.33;7.67;;;;;21.12;49.25;101329.16;6189814;22;45193;-63
2023/06/01 01:00:10;;;;;;;;;10.50;9.50;;;;;21.09;49.58;101323.75;6190575;22;44883;-63
2023/06/01 01:02:44;;;;;;;;;13.00;10.67;;;;;21.04;49.91;101323.78;6189841;22;45011;-61
2023/06/01 01:05:10;;;;;;;;;9.00;9.00;;;;;21.02;50.21;101335.56;6191192;22;45090;-62
2023/06/01 01:07:56;;;;;;;;;11.33;10.00;;;;;21.02;50.12;101330.13;6190075;23;45841;-62
2023/06/01 01:10:32;;;;;;;;;18.67;11.67;;;;;20.97;50.59;101333.78;6190274;23;45055;-64
2023/06/01 01:13:20;;;;;;;;;14.33;10.67;;;;;20.89;50.92;101337.47;6190109;23;45090;-61
2023/06/01 01:15:59;;;;;;;;;18.50;15.50;;;;;20.83;51.69;101321.22;6191473;22;44891;-64
2023/06/01 01:18:32;;;;;;;;;9.33;9.33;;;;;20.78;51.66;101335.72;6189640;22;45374;-62
2023/06/01 01:21:00;;;;;;;;;11.75;11.00;;;;;20.73;51.91;101337.56;6189434;22;44877;-62
2023/06/01 01:23:54;;;;;;;;;13.00;10.33;;;;;20.70;52.17;101331.25;6189465;22;44971;-64
2023/06/01 01:26:57;;;;;;;;;15.25;13.00;;;;;20.68;52.41;101333.09;6190314;22;45158;-61
2023/06/01 01:29:25;;;;;;;;;19.75;12.25;;;;;20.61;52.25;101333.06;6189745;22;45529;-61
2023/06/01 01:31:52;;;;;;;;;12.75;10.25;;;;;20.57;52.38;101331.31;6189925;23;45137;-61
2023/06/01 01:34:20;;;;;;;;;10.25;10.25;;;;;20.56;52.63;101331.31;6189765;23;45083;-61
2023/06/01 01:36:45;;;;;;;;;16.00;11.75;;;;;20.51;52.76;101331.34;6189770;22;44971;-60
2023/06/01 01:39:11;;;;;;;;;13.25;11.50;;;;;20.49;53.00;101327.72;6189433;23;45341;-61
2023/06/01 01:41:36;;;;;;;;;13.25;12.75;;;;;20.49;52.97;101334.94;6190202;22;44948;-62
2023/06/01 01:44:03;;;;;;;;;22.25;15.75;;;;;20.48;53.25;101344.03;6189102;23;49595;-60
2023/06/01 01:46:32;;;;;;;;;18.25;11.75;;;;;20.47;52.66;101334.06;6190102;22;44802;-62
2023/06/01 01:49:07;;;;;;;;;13.25;10.25;;;;;20.45;53.13;101342.22;6189687;22;45365;-62
2023/06/01 01:52:01;;;;;;;;;12.25;10.75;;;;;20.39;53.67;101342.25;6189549;22;45009;-62
2023/06/01 01:54:28;;;;;;;;;17.50;13.00;;;;;20.24;53.79;101311.56;6189339;22;44985;-63
2023/06/01 01:56:56;;;;;;;;;16.50;14.75;;;;;20.30;53.93;101326.91;6190403;22;44948;-62
2023/06/01 01:59:23;;;;;;;;;14.50;12.00;;;;;20.28;53.98;101328.72;6190103;22;45730;-63
2023/06/01 02:01:48;;;;;;;;;12.75;11.00;;;;;20.14;54.31;101307.06;6189595;22;45050;-62
2023/06/01 02:04:14;;;;;;;;;12.33;12.00;;;;;20.21;54.16;101326.94;6189347;23;60448;-62
2023/06/01 02:06:39;;;;;;;;;15.00;13.75;;;;;20.19;54.18;101326.03;6190611;22;45038;-62
2023/06/01 02:09:08;;;;;;;;;14.67;14.67;;;;;20.19;54.55;101331.47;6189232;22;45086;-63
2023/06/01 02:11:35;;;;;;;;;16.67;13.33;;;;;20.06;54.46;101314.34;6189980;23;45060;-63
2023/06/01 02:14:00;;;;;;;;;15.25;13.00;;;;;20.14;54.50;101331.47;6189960;22;44900;-64
2023/06/01 02:16:25;;;;;;;;;15.00;13.25;;;;;20.09;54.58;101319.75;6189650;22;45126;-63
2023/06/01 02:18:51;;;;;;;;;20.75;16.25;;;;;20.06;54.76;101322.47;6189977;22;45651;-63
2023/06/01 02:21:17;;;;;;;;;23.67;16.67;;;;;20.01;55.14;101313.44;6190083;22;44875;-63
2023/06/01 02:23:42;;;;;;;;;17.33;12.00;;;;;20.00;54.90;101311.66;6189404;23;44897;-61
2023/06/01 02:26:09;;;;;;;;;21.25;13.25;;;;;20.02;54.93;101312.56;6190363;23;45114;-63
2023/06/01 02:28:36;;;;;;;;;18.25;13.75;;;;;19.97;55.12;101315.28;6189306;22;45541;-63
2023/06/01 02:31:01;;;;;;;;;21.75;15.50;;;;;19.96;54.95;101316.16;6190587;22;45058;-62
2023/06/01 02:33:27;;;;;;;;;22.75;18.25;;;;;19.84;55.40;101313.50;6191091;22;45114;-62
2023/06/01 02:35:52;;;;;;;;;16.33;12.33;;;;;19.81;55.53;101318.94;6191876;22;45184;-60
2023/06/01 02:38:18;;;;;;;;;21.50;18.75;;;;;19.80;55.47;101325.25;6191579;22;45655;-63
2023/06/01 02:40:43;;;;;;;;;16.25;14.25;;;;;19.77;55.93;101322.59;6191681;23;44952;-63
2023/06/01 02:43:08;;;;;;;;;20.50;17.25;;;;;19.76;55.64;101324.38;6191585;23;45150;-63
2023/06/01 02:45:34;;;;;;;;;21.25;16.75;;;;;19.70;55.87;101317.13;6192013;22;45109;-60
2023/06/01 02:47:59;;;;;;;;;13.75;13.25;;;;;19.71;55.69;101323.44;6191457;23;45991;-62
2023/06/01 02:50:25;;;;;;;;;26.25;21.50;;;;;19.61;56.14;101311.72;6191854;22;45060;-61
2023/06/01 02:52:51;;;;;;;;;19.25;17.00;;;;;19.58;56.37;101311.72;6190961;22;45016;-63
2023/06/01 02:55:17;;;;;;;;;18.75;14.50;;;;;19.56;56.31;101327.09;6190785;23;45216;-60
2023/06/01 02:57:42;;;;;;;;;23.25;15.75;;;;;19.57;56.43;101325.28;6191707;22;45509;-61
2023/06/01 03:00:15;;;;;;;;;19.50;15.75;;;;;19.52;56.52;101322.59;6191069;23;45022;-63
2023/06/01 03:02:42;;;;;;;;;17.75;16.00;;;;;19.46;56.23;101309.94;6191080;22;44975;-62
2023/06/01 03:05:08;;;;;;;;;17.50;15.75;;;;;19.50;56.58;101318.97;6192142;22;44861;-64
2023/06/01 03:07:34;;;;;;;;;19.00;16.25;;;;;19.46;56.84;101318.06;6190473;22;45652;-63
2023/06/01 03:09:59;;;;;;;;;25.00;21.25;;;;;19.45;56.84;101320.78;6190439;22;45070;-62
2023/06/01 03:12:25;;;;;;;;;23.50;19.50;;;;;19.43;56.88;101328.00;6190283;22;45122;-62
2023/06/01 03:14:50;;;;;;;;;27.50;21.25;;;;;19.39;57.13;101326.22;6191262;22;45061;-63
2023/06/01 03:17:15;;;;;;;;;17.25;17.25;;;;;19.23;57.13;101301.81;6190469;23;45022;-63
2023/06/01 03:19:41;;;;;;;;;24.25;21.25;;;;;19.20;57.29;101300.94;6191179;23;45066;-64
2023/06/01 03:22:06;;;;;;;;;24.25;20.25;;;;;19.25;57.32;101315.38;6189729;23;45285;-62
2023/06/01 03:24:32;;;;;;;;;20.50;15.25;;;;;19.28;57.30;101327.09;6215773;22;45091;-61
2023/06/01 03:26:57;;;;;;;;;18.00;12.75;;;;;19.26;57.55;101318.09;6189986;23;45937;-61
2023/06/01 03:29:23;;;;;;;;;23.75;19.25;;;;;19.24;57.46;101317.19;6190092;23;45178;-62
2023/06/01 03:31:48;;;;;;;;;24.50;19.25;;;;;19.09;57.67;101295.50;6190929;22;44956;-62
2023/06/01 03:34:14;;;;;;;;;18.00;17.75;;;;;19.22;57.63;101324.44;6191064;22;45098;-63
2023/06/01 03:36:39;;;;;;;;;22.25;20.50;;;;;19.19;57.76;101327.13;6191039;22;45774;-62
2023/06/01 03:39:08;;;;;;;;;18.50;17.50;;;;;19.19;57.63;101328.91;6190581;22;45019;-63
2023/06/01 03:41:34;;;;;;;;;28.75;23.75;;;;;19.17;57.82;101328.03;6191107;23;45128;-64
2023/06/01 03:44:00;;;;;;;;;21.25;19.25;;;;;19.12;57.75;101326.22;6190748;23;44955;-63
2023/06/01 03:46:25;;;;;;;;;22.75;21.25;;;;;19.11;57.93;101329.81;6189996;22;45252;-64
2023/06/01 03:48:51;;;;;;;;;21.75;20.75;;;;;19.10;58.14;101336.13;6190671;22;44957;-64
2023/06/01 03:51:17;;;;;;;;;21.25;21.25;;;;;19.09;58.06;101336.13;6190042;22;44947;-63
2023/06/01 03:53:43;;;;;;;;;25.25;17.50;;;;;19.01;58.18;101324.41;6191362;22;44970;-63
2023/06/01 03:56:08;;;;;;;;;25.75;21.50;;;;;18.94;58.33;101324.41;6191465;22;46007;-64
2023/06/01 03:58:33;;;;;;;;;18.75;18.50;;;;;19.00;58.21;101330.72;6190387;22;45009;-65
2023/06/01 04:01:00;;;;;;;;;23.75;22.75;;;;;18.84;58.57;101311.75;6190594;23;46297;-64
2023/06/01 04:03:26;;;;;;;;;24.75;21.00;;;;;18.84;58.49;101325.31;6192289;22;45045;-63
2023/06/01 04:05:58;;;;;;;;;19.50;17.25;;;;;18.86;58.59;101325.28;6190971;23;45807;-62
2023/06/01 04:08:27;;;;;;;;;23.00;21.75;;;;;18.93;58.40;101341.53;6191332;22;44901;-65
2023/06/01 04:10:52;;;;;;;;;31.75;21.75;;;;;18.85;58.39;101321.69;6192352;22;44971;-62
2023/06/01 04:13:18;;;;;;;;;38.75;23.75;;;;;18.94;58.44;101339.72;6192697;22;44980;-64
2023/06/01 04:15:45;;;;;;;;;30.75;23.50;;;;;18.96;58.52;101349.69;6191242;23;45614;-64
2023/06/01 04:18:11;;;;;;;;;25.00;22.00;;;;;18.97;58.57;101347.88;6191428;23;44980;-61
2023/06/01 04:20:36;;;;;;;;;28.25;23.50;;;;;18.82;58.48;101324.34;6192303;22;45775;-64
2023/06/01 04:23:02;;;;;;;;;37.25;26.00;;;;;18.87;58.54;101335.22;6191809;22;44988;-62
2023/06/01 04:25:28;;;;;;;;;26.50;24.25;;;;;18.81;58.88;101340.56;6190469;23;46124;-62
2023/06/01 04:27:54;;;;;;;;;29.25;24.50;;;;;18.72;59.00;101341.47;6191649;22;44937;-63
2023/06/01 04:30:22;;;;;;;;;25.75;24.50;;;;;18.71;59.29;101353.19;6190905;23;45115;-61
2023/06/01 04:32:47;;;;;;;;;24.25;21.50;;;;;18.72;59.36;101355.00;6192790;22;45163;-60
2023/06/01 04:35:13;;;;;;;;;29.75;25.25;;;;;18.66;59.32;101352.28;6191431;22;44953;-63
2023/06/01 04:37:40;;;;;;;;;21.75;19.50;;;;;18.66;59.33;101344.16;6192060;22;45039;-63
2023/06/01 04:40:09;;;;;;;;;24.50;21.25;;;;;18.55;59.05;101327.91;6190846;22;45003;-61
2023/06/01 04:42:41;;;;;;;;;30.50;27.75;;;;;18.70;59.62;101348.69;6190742;22;45068;-62
2023/06/01 04:45:07;;;;;;;;;28.00;21.75;;;;;18.76;59.23;101355.03;6190563;22;45596;-62
2023/06/01 04:47:37;;;;;;;;;23.00;19.25;;;;;18.76;59.07;101354.13;6191216;22;45097;-63
2023/06/01 04:50:08;;;;;;;;;28.50;24.25;;;;;18.73;59.52;101357.72;6191263;22;44929;-61
2023/06/01 04:52:33;;;;;;;;;26.25;22.00;;;;;18.79;59.18;101360.44;6189956;23;45181;-62
2023/06/01 04:54:59;;;;;;;;;22.25;19.75;;;;;18.81;58.89;101360.47;6190558;23;46111;-64
2023/06/01 04:57:24;;;;;;;;;22.50;21.75;;;;;18.75;59.12;101361.31;6190413;23;50554;-63
2023/06/01 04:59:50;;;;;;;;;30.75;24.50;;;;;18.58;59.32;101347.75;6191416;22;45141;-61
2023/06/01 05:02:15;;;;;;;;;32.25;24.75;;;;;18.66;59.46;101360.41;6191785;22;45218;-61
2023/06/01 05:04:40;;;;;;;;;30.00;24.50;;;;;18.69;59.49;101372.16;6191144;22;45452;-61
2023/06/01 05:07:06;;;;;;;;;35.00;27.25;;;;;18.71;59.37;101370.34;6191269;22;45125;-61
2023/06/01 05:09:31;;;;;;;;;30.00;24.50;;;;;18.69;59.30;101366.75;6191707;23;45172;-61
2023/06/01 05:11:57;;;;;;;;;31.00;25.75;;;;;18.67;59.24;101371.22;6192357;22;44833;-60
2023/06/01 05:14:22;;;;;;;;;35.25;31.00;;;;;18.66;59.55;101368.50;6191657;22;46146;-62
2023/06/01 05:16:48;;;;;;;;;28.00;26.50;;;;;18.65;59.68;101381.16;6191011;22;44916;-61
2023/06/01 05:19:14;;;;;;;;;29.25;28.00;;;;;18.67;59.91;101379.34;6189207;23;45216;-61
2023/06/01 05:21:41;;;;;;;;;30.00;23.25;;;;;18.64;59.68;101370.31;6190791;22;45031;-61
2023/06/01 05:24:07;;;;;;;;;33.00;29.75;;;;;18.66;59.79;101376.63;6191094;23;45238;-62
2023/06/01 05:26:32;;;;;;;;;27.25;26.25;;;;;18.59;59.74;101368.53;6190323;22;45564;-61
2023/06/01 05:28:57;;;;;;;;;47.00;37.25;;;;;18.68;59.80;101372.16;6189921;23;45230;-62
2023/06/01 05:31:23;;;;;;;;;29.00;22.50;;;;;18.72;59.60;101374.84;6190130;23;45056;-60
2023/06/01 05:33:48;;;;;;;;;73.50;58.25;;;;;18.56;59.75;101351.34;6188307;23;45908;-64
2023/06/01 05:36:13;;;;;;;;;43.75;37.25;;;;;18.75;59.47;101387.50;6185404;22;45306;-61
2023/06/01 05:38:39;;;;;;;;;31.75;27.75;;;;;18.70;59.52;101378.47;6188679;23;54622;-63
2023/06/01 05:41:04;;;;;;;;;33.25;28.50;;;;;18.80;59.20;101388.41;6180211;23;45369;-64
2023/06/01 05:43:30;;;;;;;;;43.00;31.75;;;;;18.87;59.09;101379.44;6184579;22;46323;-62
2023/06/01 05:45:55;;;;;;;;;37.25;29.50;;;;;18.90;59.10;101382.16;6180023;22;50495;-61
2023/06/01 05:48:20;;;;;;;;;43.00;33.75;;;;;18.81;58.90;101357.75;6177427;23;48712;-62
2023/06/01 05:50:46;;;;;;;;;28.75;28.00;;;;;18.94;58.62;101388.47;6180649;22;45452;-61
2023/06/01 05:53:11;;;;;;;;;34.75;29.75;;;;;18.99;58.73;101396.59;6179565;23;47308;-62
2023/06/01 05:55:37;;;;;;;;;29.00;24.25;;;;;19.01;58.52;101400.25;6177483;23;45306;-63
2023/06/01 05:58:02;;;;;;;;;29.75;26.25;;;;;19.02;58.45;101400.22;6182551;22;45424;-62
2023/06/01 06:00:27;;;;;;;;;36.00;27.00;;;;;19.05;58.61;101399.34;6181852;23;45160;-62
2023/06/01 06:02:52;;;;;;;;;32.25;25.75;;;;;18.96;58.21;101379.47;6182241;22;45400;-63
2023/06/01 06:05:18;;;;;;;;;33.50;27.75;;;;;19.05;58.34;101388.50;6189729;23;57659;-63
2023/06/01 06:07:43;;;;;;;;;31.75;29.00;;;;;19.11;58.09;101404.78;6190228;22;45482;-62
2023/06/01 06:10:11;;;;;;;;;41.00;31.50;;;;;19.08;58.12;101391.22;6183160;22;45322;-62
2023/06/01 06:12:36;;;;;;;;;33.75;30.00;;;;;19.19;58.31;101393.94;6179423;23;46164;-63
2023/06/01 06:15:04;;;;;;;;;36.75;31.25;;;;;19.16;57.93;101384.00;6188641;23;45482;-60
2023/06/01 06:17:29;;;;;;;;;29.00;25.75;;;;;19.23;57.74;101393.03;6180701;23;45484;-62
2023/06/01 06:19:54;;;;;;;;;28.25;24.50;;;;;19.25;57.58;101392.13;6179800;23;45199;-62
2023/06/01 06:22:20;;;;;;;;;30.50;27.00;;;;;19.27;57.52;101389.41;6183843;23;45236;-63
2023/06/01 06:24:47;;;;;;;;;27.75;26.25;;;;;19.31;57.55;101394.84;6187591;23;45381;-63
2023/06/01 06:27:12;;;;;;;;;32.50;26.75;;;;;19.42;57.09;101399.34;6189431;22;44864;-63
2023/06/01 06:29:38;;;;;;;;;24.25;22.75;;;;;19.32;56.92;101365.97;6190033;22;44885;-64
2023/06/01 06:32:04;;;;;;;;;30.25;24.75;;;;;19.52;56.93;101385.81;6189670;22;51764;-62
2023/06/01 06:34:35;;;;;;;;;39.00;32.25;;;;;19.52;56.72;101385.81;6190571;22;44930;-64
2023/06/01 06:37:07;;;;;;;;;35.75;30.75;;;;;19.56;56.54;101392.16;6187560;22;44992;-63
2023/06/01 06:39:33;;;;;;;;;32.50;31.75;;;;;19.64;56.28;101392.16;6188620;23;45213;-62
2023/06/01 06:42:01;;;;;;;;;30.75;27.50;;;;;19.63;56.19;101383.13;6190580;22;45766;-62
2023/06/01 06:44:26;;;;;;;;;27.25;26.50;;;;;19.50;56.10;101351.47;6188695;22;44988;-62
2023/06/01 06:46:51;;;;;;;;;37.00;28.25;;;;;19.77;55.82;101398.50;6188948;23;44946;-62
2023/06/01 06:49:18;;;;;;;;;36.75;30.00;;;;;19.83;55.68;101390.34;6191043;22;45133;-62
2023/06/01 06:51:44;;;;;;;;;28.25;23.50;;;;;19.83;55.60;101383.13;6189148;22;45035;-63
2023/06/01 06:54:09;;;;;;;;;31.75;25.25;;;;;19.97;54.94;101402.06;6188633;22;44996;-64
2023/06/01 06:56:34;;;;;;;;;30.25;24.25;;;;;19.96;54.90;101374.94;6189679;22;45050;-62
2023/06/01 06:59:00;;;;;;;;;24.50;22.75;;;;;20.03;54.84;101372.22;6189440;22;44922;-65
2023/06/01 07:01:26;;;;;;;;;30.75;25.25;;;;;20.13;54.87;101386.66;6189066;22;46236;-63
2023/06/01 07:03:52;;;;;;;;;28.25;25.00;;;;;20.20;54.42;101385.72;6189410;22;45333;-62
2023/06/01 07:06:18;;;;;;;;;26.00;23.75;;;;;20.20;54.37;101377.59;6190083;22;44963;-61
2023/06/01 07:08:43;;;;;;;;;32.25;25.00;;;;;20.27;54.41;101383.00;6185355;22;45292;-62
2023/06/01 07:11:09;;;;;;;;;32.75;27.25;;;;;20.21;54.15;101363.13;6182317;22;46303;-63
2023/06/01 07:13:35;;;;;;;;;24.75;24.00;;;;;20.39;53.88;101377.50;6184437;22;45401;-60
2023/06/01 07:16:02;;;;;;;;;33.75;24.50;;;;;20.47;53.52;101386.53;6183742;22;45380;-64
2023/06/01 07:18:28;;;;;;;;;26.00;25.00;;;;;20.54;53.35;101373.84;6182361;22;45151;-63
2023/06/01 07:20:53;;;;;;;;;30.00;25.75;;;;;20.61;53.14;101384.66;6186047;22;45327;-62
2023/06/01 07:23:18;;;;;;;;;24.00;21.25;;;;;20.72;52.96;101381.00;6184882;23;47107;-61
2023/06/01 07:25:44;;;;;;;;;22.75;20.75;;;;;20.74;52.93;101381.91;6184863;22;45278;-62
2023/06/01 07:28:09;;;;;;;;;28.25;25.25;;;;;20.73;52.69;101381.00;6186701;22;45171;-62
2023/06/01 07:30:35;;;;;;;;;27.75;22.50;;;;;20.84;52.53;101386.41;6191789;22;45626;-63
2023/06/01 07:33:02;;;;;;;;;25.00;23.50;;;;;20.82;52.25;101373.72;6186149;22;45183;-62
2023/06/01 07:35:28;;;;;;;;;32.50;25.75;;;;;20.95;52.39;101383.59;6185925;22;45301;-61
2023/06/01 07:37:53;;;;;;;;;24.25;21.25;;;;;21.05;52.14;101392.59;6181412;22;45276;-60
2023/06/01 07:40:19;;;;;;;;;37.00;24.50;;;;;21.02;51.78;101363.66;6183073;23;46511;-65
2023/06/01 07:42:44;;;;;;;;;23.50;20.00;;;;;21.28;51.40;101387.91;6187643;22;45223;-63
2023/06/01 07:45:10;;;;;;;;;29.00;25.75;;;;;21.49;50.98;101386.84;6187866;22;45022;-62
2023/06/01 07:47:36;;;;;;;;;29.50;26.25;;;;;21.66;50.86;101391.22;6188186;22;45200;-62
2023/06/01 07:50:02;;;;;;;;;37.00;30.25;;;;;21.78;50.28;101382.97;6189672;22;45287;-62
2023/06/01 07:52:27;;;;;;;;;25.75;21.75;;;;;21.83;49.79;101391.09;6189103;23;45159;-62
2023/06/01 07:54:52;;;;;;;;;23.75;22.00;;;;;21.88;49.78;101397.38;6190769;22;45042;-60
2023/06/01 07:57:18;;;;;;;;;21.75;20.00;;;;;21.88;49.78;101397.38;6189625;22;44931;-60
2023/06/01 07:59:44;;;;;;;;;28.75;24.75;;;;;21.92;49.75;101399.13;6190673;22;44991;-62
2023/06/01 08:02:10;;;;;;;;;21.50;19.75;;;;;21.99;49.60;101390.03;6189577;23;45133;-63
2023/06/01 08:04:37;;;;;;;;;25.50;24.00;;;;;21.96;49.24;101383.69;6190108;22;45178;-62
2023/06/01 08:07:03;;;;;;;;;23.67;19.33;;;;;22.07;49.35;101379.91;6190673;23;45002;-61
2023/06/01 08:09:29;;;;;;;;;26.25;23.25;;;;;22.15;49.32;101393.44;6190200;22;46378;-63
2023/06/01 08:11:54;;;;;;;;;21.00;20.50;;;;;22.22;49.38;101397.00;6191074;22;45349;-62
2023/06/01 08:14:20;;;;;;;;;25.75;20.75;;;;;22.26;49.09;101393.34;6190627;22;44967;-61
2023/06/01 08:16:45;;;;;;;;;26.00;22.25;;;;;22.05;48.65;101350.94;6190745;22;45353;-64
2023/06/01 08:19:11;;;;;;;;;25.00;22.50;;;;;22.27;48.77;101389.69;6190086;22;46006;-63
2023/06/01 08:21:36;;;;;;;;;21.00;20.25;;;;;22.36;48.45;101403.22;6186365;22;45000;-62
2023/06/01 08:24:02;;;;;;;;;29.25;25.75;;;;;22.36;48.40;101394.16;6185620;23;45250;-62
2023/06/01 08:26:28;;;;;;;;;23.00;21.25;;;;;22.48;48.65;101406.72;6189502;23;45241;-63
2023/06/01 08:28:53;;;;;;;;;22.75;19.00;;;;;22.54;48.01;101409.38;6188023;22;45261;-61
2023/06/01 08:31:20;;;;;;;;;24.00;22.25;;;;;22.50;48.01;101388.53;6190687;22;44893;-62
2023/06/01 08:33:46;;;;;;;;;26.00;21.25;;;;;22.69;47.82;101416.44;6187582;23;44954;-63
2023/06/01 08:36:12;;;;;;;;;27.00;24.00;;;;;22.69;47.76;101401.00;6191072;22;44867;-63
2023/06/01 08:38:38;;;;;;;;;23.50;20.00;;;;;22.81;47.77;101405.38;6189026;22;45255;-63
2023/06/01 08:41:29;;;;;;;;;25.75;22.75;;;;;22.79;47.59;101399.06;6186901;22;45328;-63
2023/06/01 08:43:59;;;;;;;;;23.50;21.50;;;;;22.88;47.41;101403.47;6169899;23;45129;-63
2023/06/01 08:46:25;;;;;;;;;24.75;17.75;;;;;22.89;47.54;101399.81;6191711;22;45301;-64
2023/06/01 08:48:54;;;;;;;;;27.75;23.25;;;;;22.97;47.51;101406.06;6188151;23;47155;-64
2023/06/01 08:51:24;;;;;;;;;25.67;20.00;;;;;23.03;47.34;101397.78;6190027;22;44967;-63
2023/06/01 08:53:50;;;;;;;;;23.50;21.00;;;;;23.09;46.98;101395.00;6190641;23;45048;-63
2023/06/01 08:56:16;;;;;;;;;21.50;19.25;;;;;23.21;46.85;101404.81;6189032;22;45047;-64
2023/06/01 08:58:43;;;;;;;;;23.25;23.25;;;;;23.27;46.62;101399.28;6189924;22;46433;-65
2023/06/01 09:01:11;;;;;;;;;25.75;23.50;;;;;23.21;46.62;101384.84;6189600;22;45168;-62
2023/06/01 09:03:36;;;;;;;;;23.50;18.75;;;;;23.32;46.44;101389.19;6190727;22;45385;-64
2023/06/01 09:06:03;;;;;;;;;28.00;20.75;;;;;23.27;46.31;101361.09;6188539;23;45400;-62
2023/06/01 09:08:29;;;;;;;;;21.25;17.00;;;;;23.47;46.07;101393.47;6188155;22;45570;-64
2023/06/01 09:10:55;;;;;;;;;22.75;20.50;;;;;23.52;46.05;101380.66;6190037;22;45118;-62
2023/06/01 09:13:33;;;;;;;;;28.00;25.00;;;;;23.52;46.31;101371.59;6188920;23;45211;-62
2023/06/01 09:15:59;;;;;;;;;28.50;26.00;;;;;23.70;45.76;101384.00;6190543;22;44969;-63
2023/06/01 09:18:24;;;;;;;;;28.25;21.25;;;;;23.77;45.95;101385.69;6188425;22;46521;-63
2023/06/01 09:20:53;;;;;;;;;27.00;24.00;;;;;23.85;45.84;101383.75;6189628;23;45161;-61
2023/06/01 09:23:26;;;;;;;;;29.25;23.25;;;;;23.94;45.60;101374.50;6183537;22;45389;-65
2023/06/01 09:26:07;;;;;;;;;27.25;25.25;;;;;24.00;45.51;101371.63;6176581;22;45417;-63
2023/06/01 09:28:52;;;;;;;;;30.50;25.50;;;;;24.13;45.53;101379.59;6177407;23;45447;-63
2023/06/01 09:31:38;;;;;;;;;23.25;18.75;;;;;24.18;44.80;101372.22;6177195;22;45239;-62
2023/06/01 09:34:04;;;;;;;;;29.75;24.25;;;;;24.18;44.49;101361.28;6178112;22;45273;-64
2023/06/01 09:36:30;;;;;;;;;31.00;27.50;;;;;24.24;44.57;101359.34;6176211;22;45488;-61
2023/06/01 09:39:07;;;;;;;;;23.50;22.50;;;;;24.32;44.30;101361.91;6177647;22;45286;-62
2023/06/01 09:41:48;;;;;;;;;31.50;25.75;;;;;24.43;44.35;101359.84;6178227;23;45420;-61
2023/06/01 09:44:21;;;;;;;;;25.50;21.75;;;;;24.53;44.20;101362.38;6178458;23;45302;-62
2023/06/01 09:46:51;;;;;;;;;27.50;22.00;;;;;24.50;44.42;101343.31;6178427;23;45402;-64
2023/06/01 09:49:31;;;;;;;;;21.33;19.00;;;;;24.69;43.78;101361.13;6177084;22;46911;-61
2023/06/01 09:52:05;;;;;;;;;24.00;20.33;;;;;24.77;43.57;101352.78;6177374;23;45488;-64
2023/06/01 09:54:54;;;;;;;;;21.33;19.67;;;;;24.79;43.00;101354.53;6176826;23;45338;-61
2023/06/01 09:57:23;;;;;;;;;23.33;21.67;;;;;24.88;43.10;101355.25;6178477;22;45398;-62
2023/06/01 09:59:48;;;;;;;;;22.75;21.00;;;;;24.86;42.69;101346.19;6177719;23;46327;-63
2023/06/01 10:02:19;;;;;;;;;27.75;21.25;;;;;24.88;42.88;101347.03;6177979;23;45415;-64
2023/06/01 10:04:49;;;;;;;;;20.00;16.67;;;;;24.91;42.57;101344.25;6175649;23;45445;-65
2023/06/01 10:07:16;;;;;;;;;20.00;17.00;;;;;24.98;42.91;101348.66;6176880;23;45378;-62
2023/06/01 10:09:45;;;;;;;;;18.33;15.33;;;;;25.00;42.58;101338.56;6177840;23;45378;-63
2023/06/01 10:12:11;;;;;;;;;21.33;17.67;;;;;24.96;42.83;101325.88;6177128;23;45365;-63
2023/06/01 10:14:38;;;;;;;;;19.67;19.33;;;;;25.13;42.23;101336.44;6179581;22;45421;-62
2023/06/01 10:17:04;;;;;;;;;24.00;19.33;;;;;25.06;42.40;101322.00;6177280;23;45513;-60
2023/06/01 10:19:30;;;;;;;;;18.67;15.67;;;;;25.10;42.66;101334.66;6176186;23;46136;-61
2023/06/01 10:21:59;;;;;;;;;18.67;15.67;;;;;25.09;42.29;101321.03;6177137;23;45393;-65
2023/06/01 10:24:26;;;;;;;;;22.33;21.67;;;;;25.24;42.30;101338.88;6178835;23;45392;-65
2023/06/01 10:27:14;;;;;;;;;15.33;14.33;;;;;25.29;42.08;101331.50;6176905;23;45480;-65
2023/06/01 10:29:43;;;;;;;;;16.00;14.00;;;;;25.33;42.14;101325.91;6159186;23;46277;-63
2023/06/01 10:32:44;;;;;;;;;15.67;15.67;;;;;25.35;41.76;101328.59;6176037;23;45388;-65
2023/06/01 10:35:30;;;;;;;;;19.33;18.00;;;;;25.27;41.87;101320.59;6191447;22;45564;-62
2023/06/01 10:38:19;;;;;;;;;20.67;19.00;;;;;25.30;41.91;101334.19;6178031;22;45339;-62
2023/06/01 10:40:46;;;;;;;;;18.67;16.67;;;;;25.26;41.76;101326.06;6159388;23;46052;-64
2023/06/01 10:43:36;;;;;;;;;24.67;20.33;;;;;25.33;41.88;101325.03;6175366;23;45292;-63
2023/06/01 10:46:02;;;;;;;;;21.67;20.67;;;;;25.32;41.84;101315.88;6178343;23;45330;-63
2023/06/01 10:48:52;;;;;;;;;22.67;20.33;;;;;25.37;41.79;101316.66;6178087;22;45235;-63
2023/06/01 10:51:20;;;;;;;;;20.00;18.67;;;;;25.43;42.20;101317.47;6178574;23;45414;-63
2023/06/01 10:53:45;;;;;;;;;18.33;15.67;;;;;25.47;41.69;101319.16;6179271;23;45266;-64
2023/06/01 10:56:21;;;;;;;;;19.67;17.00;;;;;25.52;41.07;101309.91;6179662;22;45870;-63
2023/06/01 10:59:07;;;;;;;;;21.75;18.25;;;;;25.52;41.46;101307.19;6179199;23;45414;-63
2023/06/01 11:01:42;;;;;;;;;19.00;16.67;;;;;25.60;41.60;101311.53;6176191;23;48311;-65
2023/06/01 11:04:08;;;;;;;;;16.33;15.67;;;;;25.62;41.08;101309.66;6177652;23;45456;-64
2023/06/01 11:06:38;;;;;;;;;16.67;15.33;;;;;25.61;41.03;101307.88;6179470;22;45297;-64
2023/06/01 11:09:10;;;;;;;;;19.33;18.00;;;;;25.61;41.26;101310.63;6177106;23;45595;-64
2023/06/01 11:11:50;;;;;;;;;17.00;15.00;;;;;25.63;40.81;101308.72;6178347;22;46162;-62
2023/06/01 11:14:29;;;;;;;;;16.00;14.33;;;;;25.65;40.82;101304.09;6178624;22;45429;-66